sensor_id;sensor_type;location;lat;lon;timestamp;pressure;altitude;pressure_sealevel;temperature
44791;BMP280;30510;37.536;-122.304;2022-07-05T00:01:31;101391.44;;;23.51
44791;BMP280;30510;37.536;-122.304;2022-07-05T00:03:57;101384.94;;;23.52
44791;BMP280;30510;37.536;-122.304;2022-07-05T00:06:22;101394.03;;;23.52
44791;BMP280;30510;37.536;-122.304;2022-07-05T00:08:48;101388.28;;;23.55
44791;BMP280;30510;37.536;-122.304;2022-07-05T00:11:13;101396.13;;;23.59
44791;BMP280;30510;37.536;-122.304;2022-07-05T00:13:39;101388.75;;;23.80
44791;BMP280;30510;37.536;-122.304;2022-07-05T00:16:04;101383.22;;;23.71
44791;BMP280;30510;37.536;-122.304;2022-07-05T00:18:30;101388.69;;;23.71
44791;BMP280;30510;37.536;-122.304;2022-07-05T00:20:55;101384.50;;;23.67
44791;BMP280;30510;37.536;-122.304;2022-07-05T00:23:20;101381.88;;;23.65
44791;BMP280;30510;37.536;-122.304;2022-07-05T00:25:46;101382.59;;;23.67
44791;BMP280;30510;37.536;-122.304;2022-07-05T00:28:11;101379.47;;;23.72
44791;BMP280;30510;37.536;-122.304;2022-07-05T00:30:37;101376.13;;;23.68
44791;BMP280;30510;37.536;-122.304;2022-07-05T00:33:02;101368.50;;;23.72
44791;BMP280;30510;37.536;-122.304;2022-07-05T00:35:28;101364.75;;;23.73
44791;BMP280;30510;37.536;-122.304;2022-07-05T00:37:53;101368.25;;;23.75
44791;BMP280;30510;37.536;-122.304;2022-07-05T00:40:18;101353.66;;;23.74
44791;BMP280;30510;37.536;-122.304;2022-07-05T00:42:44;101351.63;;;23.76
44791;BMP280;30510;37.536;-122.304;2022-07-05T00:45:09;101350.66;;;23.77
44791;BMP280;30510;37.536;-122.304;2022-07-05T00:47:35;101349.50;;;23.80
44791;BMP280;30510;37.536;-122.304;2022-07-05T00:50:00;101343.88;;;23.81
44791;BMP280;30510;37.536;-122.304;2022-07-05T00:52:26;101339.28;;;23.82
44791;BMP280;30510;37.536;-122.304;2022-07-05T00:54:51;101342.31;;;23.88
44791;BMP280;30510;37.536;-122.304;2022-07-05T00:57:18;101349.41;;;23.91
44791;BMP280;30510;37.536;-122.304;2022-07-05T00:59:44;101348.38;;;23.92
44791;BMP280;30510;37.536;-122.304;2022-07-05T01:02:10;101350.28;;;23.91
44791;BMP280;30510;37.536;-122.304;2022-07-05T01:04:35;101342.91;;;23.92
44791;BMP280;30510;37.536;-122.304;2022-07-05T01:07:00;101350.84;;;23.95
44791;BMP280;30510;37.536;-122.304;2022-07-05T01:09:26;101346.22;;;23.95
44791;BMP280;30510;37.536;-122.304;2022-07-05T01:11:51;101334.53;;;23.93
44791;BMP280;30510;37.536;-122.304;2022-07-05T01:14:20;101337.16;;;23.95
44791;BMP280;30510;37.536;-122.304;2022-07-05T01:16:50;101344.38;;;23.96
44791;BMP280;30510;37.536;-122.304;2022-07-05T01:19:16;101339.50;;;23.99
44791;BMP280;30510;37.536;-122.304;2022-07-05T01:21:42;101343.22;;;23.98
44791;BMP280;30510;37.536;-122.304;2022-07-05T01:24:08;101337.59;;;23.99
44791;BMP280;30510;37.536;-122.304;2022-07-05T01:26:34;101342.81;;;24.02
44791;BMP280;30510;37.536;-122.304;2022-07-05T01:28:59;101343.53;;;24.04
44791;BMP280;30510;37.536;-122.304;2022-07-05T01:31:25;101343.81;;;24.01
44791;BMP280;30510;37.536;-122.304;2022-07-05T01:33:50;101340.81;;;24.04
44791;BMP280;30510;37.536;-122.304;2022-07-05T01:36:16;101343.69;;;24.03
44791;BMP280;30510;37.536;-122.304;2022-07-05T01:38:42;101349.63;;;24.08
44791;BMP280;30510;37.536;-122.304;2022-07-05T01:41:10;101355.09;;;24.08
44791;BMP280;30510;37.536;-122.304;2022-07-05T01:43:36;101354.78;;;24.11
44791;BMP280;30510;37.536;-122.304;2022-07-05T01:46:02;101367.38;;;24.13
44791;BMP280;30510;37.536;-122.304;2022-07-05T01:48:28;101363.75;;;24.13
44791;BMP280;30510;37.536;-122.304;2022-07-05T01:50:58;101371.69;;;24.16
44791;BMP280;30510;37.536;-122.304;2022-07-05T01:53:27;101373.59;;;24.15
44791;BMP280;30510;37.536;-122.304;2022-07-05T01:55:53;101368.69;;;24.19
44791;BMP280;30510;37.536;-122.304;2022-07-05T01:58:18;101367.25;;;24.24
44791;BMP280;30510;37.536;-122.304;2022-07-05T02:00:48;101375.34;;;24.26
44791;BMP280;30510;37.536;-122.304;2022-07-05T02:03:14;101385.59;;;24.24
44791;BMP280;30510;37.536;-122.304;2022-07-05T02:05:40;101386.00;;;24.19
44791;BMP280;30510;37.536;-122.304;2022-07-05T02:08:06;101388.47;;;24.22
44791;BMP280;30510;37.536;-122.304;2022-07-05T02:10:31;101390.19;;;24.23
44791;BMP280;30510;37.536;-122.304;2022-07-05T02:12:57;101385.72;;;24.22
44791;BMP280;30510;37.536;-122.304;2022-07-05T02:15:22;101399.72;;;24.19
44791;BMP280;30510;37.536;-122.304;2022-07-05T02:17:48;101401.28;;;24.12
44791;BMP280;30510;37.536;-122.304;2022-07-05T02:20:13;101401.28;;;24.12
44791;BMP280;30510;37.536;-122.304;2022-07-05T02:22:38;101400.88;;;24.17
44791;BMP280;30510;37.536;-122.304;2022-07-05T02:25:04;101403.63;;;24.17
44791;BMP280;30510;37.536;-122.304;2022-07-05T02:27:30;101399.84;;;24.18
44791;BMP280;30510;37.536;-122.304;2022-07-05T02:29:55;101408.78;;;24.20
44791;BMP280;30510;37.536;-122.304;2022-07-05T02:32:20;101405.47;;;24.16
44791;BMP280;30510;37.536;-122.304;2022-07-05T02:34:46;101419.34;;;24.15
44791;BMP280;30510;37.536;-122.304;2022-07-05T02:37:11;101407.34;;;24.16
44791;BMP280;30510;37.536;-122.304;2022-07-05T02:39:37;101415.31;;;24.19
44791;BMP280;30510;37.536;-122.304;2022-07-05T02:42:02;101406.81;;;24.22
44791;BMP280;30510;37.536;-122.304;2022-07-05T02:44:28;101420.34;;;24.23
44791;BMP280;30510;37.536;-122.304;2022-07-05T02:46:54;101409.38;;;24.23
44791;BMP280;30510;37.536;-122.304;2022-07-05T02:49:19;101414.00;;;24.23
44791;BMP280;30510;37.536;-122.304;2022-07-05T02:51:45;101413.44;;;24.19
44791;BMP280;30510;37.536;-122.304;2022-07-05T02:54:10;101399.84;;;24.18
44791;BMP280;30510;37.536;-122.304;2022-07-05T02:56:35;101411.13;;;24.15
44791;BMP280;30510;37.536;-122.304;2022-07-05T02:59:01;101404.59;;;24.16
44791;BMP280;30510;37.536;-122.304;2022-07-05T03:01:26;101399.25;;;24.14
44791;BMP280;30510;37.536;-122.304;2022-07-05T03:03:52;101407.63;;;24.13
44791;BMP280;30510;37.536;-122.304;2022-07-05T03:06:17;101393.19;;;24.11
44791;BMP280;30510;37.536;-122.304;2022-07-05T03:08:43;101398.66;;;24.11
44791;BMP280;30510;37.536;-122.304;2022-07-05T03:11:08;101402.44;;;24.10
44791;BMP280;30510;37.536;-122.304;2022-07-05T03:13:34;101409.94;;;24.08
44791;BMP280;30510;37.536;-122.304;2022-07-05T03:15:59;101403.69;;;24.06
44791;BMP280;30510;37.536;-122.304;2022-07-05T03:18:25;101406.44;;;24.06
44791;BMP280;30510;37.536;-122.304;2022-07-05T03:20:50;101404.72;;;24.05
44791;BMP280;30510;37.536;-122.304;2022-07-05T03:23:15;101411.06;;;24.05
44791;BMP280;30510;37.536;-122.304;2022-07-05T03:25:41;101408.19;;;24.07
44791;BMP280;30510;37.536;-122.304;2022-07-05T03:28:06;101419.41;;;24.04
44791;BMP280;30510;37.536;-122.304;2022-07-05T03:30:32;101412.22;;;24.03
44791;BMP280;30510;37.536;-122.304;2022-07-05T03:32:57;101402.13;;;24.03
44791;BMP280;30510;37.536;-122.304;2022-07-05T03:35:23;101412.22;;;24.03
44791;BMP280;30510;37.536;-122.304;2022-07-05T03:37:48;101403.13;;;24.02
44791;BMP280;30510;37.536;-122.304;2022-07-05T03:40:13;101416.84;;;24.02
44791;BMP280;30510;37.536;-122.304;2022-07-05T03:42:39;101418.69;;;24.02
44791;BMP280;30510;37.536;-122.304;2022-07-05T03:45:04;101430.69;;;24.01
44791;BMP280;30510;37.536;-122.304;2022-07-05T03:47:30;101423.44;;;24.00
44791;BMP280;30510;37.536;-122.304;2022-07-05T03:49:55;101421.56;;;24.00
44791;BMP280;30510;37.536;-122.304;2022-07-05T03:52:21;101432.41;;;24.02
44791;BMP280;30510;37.536;-122.304;2022-07-05T03:54:46;101426.06;;;24.01
44791;BMP280;30510;37.536;-122.304;2022-07-05T03:57:12;101426.06;;;24.01
44791;BMP280;30510;37.536;-122.304;2022-07-05T03:59:38;101432.72;;;23.99
44791;BMP280;30510;37.536;-122.304;2022-07-05T04:02:03;101429.06;;;23.98
44791;BMP280;30510;37.536;-122.304;2022-07-05T04:04:29;101420.84;;;23.98
44791;BMP280;30510;37.536;-122.304;2022-07-05T04:06:54;101429.19;;;23.97
44791;BMP280;30510;37.536;-122.304;2022-07-05T04:09:20;101425.72;;;23.95
44791;BMP280;30510;37.536;-122.304;2022-07-05T04:11:45;101417.66;;;23.94
44791;BMP280;30510;37.536;-122.304;2022-07-05T04:14:10;101413.06;;;23.94
44791;BMP280;30510;37.536;-122.304;2022-07-05T04:16:36;101413.06;;;23.94
44791;BMP280;30510;37.536;-122.304;2022-07-05T04:19:02;101404.09;;;23.92
44791;BMP280;30510;37.536;-122.304;2022-07-05T04:21:27;101402.09;;;23.94
44791;BMP280;30510;37.536;-122.304;2022-07-05T04:23:53;101398.31;;;23.95
44791;BMP280;30510;37.536;-122.304;2022-07-05T04:26:18;101393.13;;;23.92
44791;BMP280;30510;37.536;-122.304;2022-07-05T04:28:43;101394.00;;;23.93
44791;BMP280;30510;37.536;-122.304;2022-07-05T04:31:09;101379.84;;;23.97
44791;BMP280;30510;37.536;-122.304;2022-07-05T04:33:34;101378.28;;;23.95
44791;BMP280;30510;37.536;-122.304;2022-07-05T04:36:00;101377.28;;;23.96
44791;BMP280;30510;37.536;-122.304;2022-07-05T04:38:25;101380.16;;;23.94
44791;BMP280;30510;37.536;-122.304;2022-07-05T04:40:50;101381.28;;;23.92
44791;BMP280;30510;37.536;-122.304;2022-07-05T04:43:16;101392.25;;;23.92
44791;BMP280;30510;37.536;-122.304;2022-07-05T04:45:42;101400.59;;;23.90
44791;BMP280;30510;37.536;-122.304;2022-07-05T04:48:07;101406.38;;;23.87
44791;BMP280;30510;37.536;-122.304;2022-07-05T04:50:33;101410.13;;;23.86
44791;BMP280;30510;37.536;-122.304;2022-07-05T04:52:58;101414.75;;;23.86
44791;BMP280;30510;37.536;-122.304;2022-07-05T04:55:24;101428.56;;;23.84
44791;BMP280;30510;37.536;-122.304;2022-07-05T04:57:49;101426.81;;;23.83
44791;BMP280;30510;37.536;-122.304;2022-07-05T05:00:15;101432.31;;;23.83
44791;BMP280;30510;37.536;-122.304;2022-07-05T05:02:40;101432.59;;;23.80
44791;BMP280;30510;37.536;-122.304;2022-07-05T05:05:06;101431.72;;;23.80
44791;BMP280;30510;37.536;-122.304;2022-07-05T05:07:32;101435.34;;;23.80
44791;BMP280;30510;37.536;-122.304;2022-07-05T05:09:57;101436.19;;;23.81
44791;BMP280;30510;37.536;-122.304;2022-07-05T05:12:23;101434.44;;;23.80
44791;BMP280;30510;37.536;-122.304;2022-07-05T05:14:48;101431.59;;;23.81
44791;BMP280;30510;37.536;-122.304;2022-07-05T05:17:14;101436.06;;;23.82
44791;BMP280;30510;37.536;-122.304;2022-07-05T05:19:39;101440.53;;;23.83
44791;BMP280;30510;37.536;-122.304;2022-07-05T05:22:04;101439.81;;;23.81
44791;BMP280;30510;37.536;-122.304;2022-07-05T05:24:30;101441.56;;;23.82
44791;BMP280;30510;37.536;-122.304;2022-07-05T05:26:55;101447.75;;;23.84
44791;BMP280;30510;37.536;-122.304;2022-07-05T05:29:21;101446.78;;;23.85
44791;BMP280;30510;37.536;-122.304;2022-07-05T05:31:46;101443.13;;;23.85
44791;BMP280;30510;37.536;-122.304;2022-07-05T05:34:12;101440.41;;;23.85
44791;BMP280;30510;37.536;-122.304;2022-07-05T05:36:37;101445.28;;;23.81
44791;BMP280;30510;37.536;-122.304;2022-07-05T05:39:03;101438.34;;;23.77
44791;BMP280;30510;37.536;-122.304;2022-07-05T05:41:28;101440.81;;;23.80
44791;BMP280;30510;37.536;-122.304;2022-07-05T05:43:53;101427.84;;;23.82
44791;BMP280;30510;37.536;-122.304;2022-07-05T05:46:19;101423.66;;;23.78
44791;BMP280;30510;37.536;-122.304;2022-07-05T05:48:44;101428.97;;;23.80
44791;BMP280;30510;37.536;-122.304;2022-07-05T05:51:10;101427.84;;;23.82
44791;BMP280;30510;37.536;-122.304;2022-07-05T05:53:35;101425.63;;;23.76
44791;BMP280;30510;37.536;-122.304;2022-07-05T05:56:00;101423.91;;;23.75
44791;BMP280;30510;37.536;-122.304;2022-07-05T05:58:26;101427.38;;;23.77
44791;BMP280;30510;37.536;-122.304;2022-07-05T06:00:51;101423.19;;;23.73
44791;BMP280;30510;37.536;-122.304;2022-07-05T06:03:24;101417.72;;;23.73
44791;BMP280;30510;37.536;-122.304;2022-07-05T06:05:49;101420.72;;;23.70
44791;BMP280;30510;37.536;-122.304;2022-07-05T06:08:15;101422.72;;;23.68
44791;BMP280;30510;37.536;-122.304;2022-07-05T06:10:41;101420.97;;;23.67
44791;BMP280;30510;37.536;-122.304;2022-07-05T06:13:07;101420.13;;;23.67
44791;BMP280;30510;37.536;-122.304;2022-07-05T06:15:33;101424.72;;;23.66
44791;BMP280;30510;37.536;-122.304;2022-07-05T06:17:59;101426.75;;;23.64
44791;BMP280;30510;37.536;-122.304;2022-07-05T06:20:25;101422.13;;;23.65
44791;BMP280;30510;37.536;-122.304;2022-07-05T06:22:51;101410.31;;;23.64
44791;BMP280;30510;37.536;-122.304;2022-07-05T06:25:17;101416.91;;;23.62
44791;BMP280;30510;37.536;-122.304;2022-07-05T06:27:46;101404.81;;;23.64
44791;BMP280;30510;37.536;-122.304;2022-07-05T06:30:15;101410.31;;;23.64
44791;BMP280;30510;37.536;-122.304;2022-07-05T06:32:42;101406.41;;;23.67
44791;BMP280;30510;37.536;-122.304;2022-07-05T06:35:08;101410.16;;;23.66
44791;BMP280;30510;37.536;-122.304;2022-07-05T06:37:47;101408.28;;;23.66
44791;BMP280;30510;37.536;-122.304;2022-07-05T06:40:23;101405.69;;;23.65
44791;BMP280;30510;37.536;-122.304;2022-07-05T06:42:49;101408.28;;;23.66
44791;BMP280;30510;37.536;-122.304;2022-07-05T06:45:15;101402.81;;;23.66
44791;BMP280;30510;37.536;-122.304;2022-07-05T06:47:40;101405.69;;;23.65
44791;BMP280;30510;37.536;-122.304;2022-07-05T06:50:06;101412.03;;;23.65
44791;BMP280;30510;37.536;-122.304;2022-07-05T06:52:32;101406.06;;;23.60
44791;BMP280;30510;37.536;-122.304;2022-07-05T06:55:17;101399.59;;;23.61
44791;BMP280;30510;37.536;-122.304;2022-07-05T06:57:42;101395.13;;;23.60
44791;BMP280;30510;37.536;-122.304;2022-07-05T07:00:08;101397.72;;;23.62
44791;BMP280;30510;37.536;-122.304;2022-07-05T07:02:34;101397.84;;;23.60
44791;BMP280;30510;37.536;-122.304;2022-07-05T07:04:59;101394.13;;;23.61
44791;BMP280;30510;37.536;-122.304;2022-07-05T07:07:24;101397.84;;;23.60
44791;BMP280;30510;37.536;-122.304;2022-07-05T07:09:50;101400.34;;;23.63
44791;BMP280;30510;37.536;-122.304;2022-07-05T07:12:15;101399.84;;;23.58
44791;BMP280;30510;37.536;-122.304;2022-07-05T07:14:41;101396.63;;;23.53
44791;BMP280;30510;37.536;-122.304;2022-07-05T07:17:06;101397.09;;;23.58
44791;BMP280;30510;37.536;-122.304;2022-07-05T07:19:31;101393.63;;;23.56
44791;BMP280;30510;37.536;-122.304;2022-07-05T07:21:57;101394.63;;;23.55
44791;BMP280;30510;37.536;-122.304;2022-07-05T07:24:22;101387.91;;;23.59
44791;BMP280;30510;37.536;-122.304;2022-07-05T07:26:48;101388.28;;;23.55
44791;BMP280;30510;37.536;-122.304;2022-07-05T07:29:13;101387.69;;;23.52
44791;BMP280;30510;37.536;-122.304;2022-07-05T07:31:39;101390.56;;;23.50
44791;BMP280;30510;37.536;-122.304;2022-07-05T07:34:04;101380.50;;;23.51
44791;BMP280;30510;37.536;-122.304;2022-07-05T07:36:29;101376.97;;;23.49
44791;BMP280;30510;37.536;-122.304;2022-07-05T07:38:55;101378.72;;;23.50
44791;BMP280;30510;37.536;-122.304;2022-07-05T07:41:20;101371.50;;;23.49
44791;BMP280;30510;37.536;-122.304;2022-07-05T07:43:45;101363.59;;;23.46
44791;BMP280;30510;37.536;-122.304;2022-07-05T07:46:11;101369.91;;;23.46
44791;BMP280;30510;37.536;-122.304;2022-07-05T07:48:36;101376.38;;;23.45
44791;BMP280;30510;37.536;-122.304;2022-07-05T07:51:02;101375.28;;;23.48
44791;BMP280;30510;37.536;-122.304;2022-07-05T07:53:27;101369.91;;;23.46
44791;BMP280;30510;37.536;-122.304;2022-07-05T07:55:52;101367.44;;;23.43
44791;BMP280;30510;37.536;-122.304;2022-07-05T07:58:18;101372.06;;;23.43
44791;BMP280;30510;37.536;-122.304;2022-07-05T08:00:43;101367.44;;;23.43
44791;BMP280;30510;37.536;-122.304;2022-07-05T08:03:09;101370.31;;;23.42
44791;BMP280;30510;37.536;-122.304;2022-07-05T08:05:34;101369.47;;;23.41
44791;BMP280;30510;37.536;-122.304;2022-07-05T08:08:00;101370.31;;;23.42
44791;BMP280;30510;37.536;-122.304;2022-07-05T08:10:25;101375.53;;;23.45
44791;BMP280;30510;37.536;-122.304;2022-07-05T08:12:51;101365.13;;;23.39
44791;BMP280;30510;37.536;-122.304;2022-07-05T08:15:16;101373.59;;;23.36
44791;BMP280;30510;37.536;-122.304;2022-07-05T08:17:41;101365.66;;;23.33
44791;BMP280;30510;37.536;-122.304;2022-07-05T08:20:07;101369.41;;;23.32
44791;BMP280;30510;37.536;-122.304;2022-07-05T08:22:32;101373.13;;;23.31
44791;BMP280;30510;37.536;-122.304;2022-07-05T08:24:58;101366.19;;;23.27
44791;BMP280;30510;37.536;-122.304;2022-07-05T08:27:24;101369.94;;;23.26
44791;BMP280;30510;37.536;-122.304;2022-07-05T08:29:49;101358.13;;;23.25
44791;BMP280;30510;37.536;-122.304;2022-07-05T08:32:15;101369.94;;;23.26
44791;BMP280;30510;37.536;-122.304;2022-07-05T08:34:40;101361.59;;;23.27
44791;BMP280;30510;37.536;-122.304;2022-07-05T08:37:06;101357.97;;;23.27
44791;BMP280;30510;37.536;-122.304;2022-07-05T08:39:31;101366.94;;;23.29
44791;BMP280;30510;37.536;-122.304;2022-07-05T08:41:57;101358.44;;;23.32
44791;BMP280;30510;37.536;-122.304;2022-07-05T08:44:23;101357.56;;;23.31
44791;BMP280;30510;37.536;-122.304;2022-07-05T08:46:49;101362.31;;;23.29
44791;BMP280;30510;37.536;-122.304;2022-07-05T08:49:15;101357.84;;;23.28
44791;BMP280;30510;37.536;-122.304;2022-07-05T08:51:42;101353.38;;;23.27
44791;BMP280;30510;37.536;-122.304;2022-07-05T08:54:11;101355.00;;;23.30
44791;BMP280;30510;37.536;-122.304;2022-07-05T08:56:37;101351.50;;;23.28
44791;BMP280;30510;37.536;-122.304;2022-07-05T08:59:03;101351.50;;;23.28
44791;BMP280;30510;37.536;-122.304;2022-07-05T09:01:28;101346.31;;;23.25
44791;BMP280;30510;37.536;-122.304;2022-07-05T09:03:54;101343.69;;;23.23
44791;BMP280;30510;37.536;-122.304;2022-07-05T09:06:21;101339.94;;;23.24
44791;BMP280;30510;37.536;-122.304;2022-07-05T09:08:48;101346.56;;;23.22
44791;BMP280;30510;37.536;-122.304;2022-07-05T09:11:14;101342.22;;;23.19
44791;BMP280;30510;37.536;-122.304;2022-07-05T09:13:40;101352.59;;;23.16
44791;BMP280;30510;37.536;-122.304;2022-07-05T09:16:06;101346.50;;;23.13
44791;BMP280;30510;37.536;-122.304;2022-07-05T09:18:45;101341.78;;;23.14
44791;BMP280;30510;37.536;-122.304;2022-07-05T09:21:14;101347.38;;;23.13
44791;BMP280;30510;37.536;-122.304;2022-07-05T09:23:40;101343.91;;;23.11
44791;BMP280;30510;37.536;-122.304;2022-07-05T09:26:05;101346.63;;;23.11
44791;BMP280;30510;37.536;-122.304;2022-07-05T09:28:31;101343.91;;;23.11
44791;BMP280;30510;37.536;-122.304;2022-07-05T09:30:56;101342.16;;;23.10
44791;BMP280;30510;37.536;-122.304;2022-07-05T09:33:21;101347.63;;;23.10
44791;BMP280;30510;37.536;-122.304;2022-07-05T09:35:56;101344.16;;;23.08
44791;BMP280;30510;37.536;-122.304;2022-07-05T09:38:22;101340.44;;;23.09
44791;BMP280;30510;37.536;-122.304;2022-07-05T09:40:48;101345.03;;;23.09
44791;BMP280;30510;37.536;-122.304;2022-07-05T09:43:15;101343.31;;;23.08
44791;BMP280;30510;37.536;-122.304;2022-07-05T09:45:50;101343.19;;;23.09
44791;BMP280;30510;37.536;-122.304;2022-07-05T09:48:15;101338.81;;;23.07
44791;BMP280;30510;37.536;-122.304;2022-07-05T09:50:41;101347.88;;;23.07
44791;BMP280;30510;37.536;-122.304;2022-07-05T09:53:06;101355.25;;;23.07
44791;BMP280;30510;37.536;-122.304;2022-07-05T09:55:32;101360.84;;;23.05
44791;BMP280;30510;37.536;-122.304;2022-07-05T09:57:57;101361.88;;;23.04
44791;BMP280;30510;37.536;-122.304;2022-07-05T10:00:22;101352.75;;;23.04
44791;BMP280;30510;37.536;-122.304;2022-07-05T10:02:51;101357.84;;;23.08
44791;BMP280;30510;37.536;-122.304;2022-07-05T10:05:21;101357.25;;;23.05
44791;BMP280;30510;37.536;-122.304;2022-07-05T10:07:47;101362.72;;;23.05
44791;BMP280;30510;37.536;-122.304;2022-07-05T10:10:16;101361.72;;;23.06
44791;BMP280;30510;37.536;-122.304;2022-07-05T10:12:43;101360.97;;;23.04
44791;BMP280;30510;37.536;-122.304;2022-07-05T10:15:10;101364.59;;;23.04
44791;BMP280;30510;37.536;-122.304;2022-07-05T10:17:37;101361.88;;;23.04
44791;BMP280;30510;37.536;-122.304;2022-07-05T10:20:05;101363.88;;;23.02
44791;BMP280;30510;37.536;-122.304;2022-07-05T10:22:31;101350.19;;;23.02
44791;BMP280;30510;37.536;-122.304;2022-07-05T10:24:58;101359.38;;;23.01
44791;BMP280;30510;37.536;-122.304;2022-07-05T10:27:25;101355.78;;;23.01
44791;BMP280;30510;37.536;-122.304;2022-07-05T10:29:51;101352.16;;;23.00
44791;BMP280;30510;37.536;-122.304;2022-07-05T10:32:17;101356.78;;;23.00
44791;BMP280;30510;37.536;-122.304;2022-07-05T10:34:43;101353.31;;;22.98
44791;BMP280;30510;37.536;-122.304;2022-07-05T10:37:09;101358.66;;;22.99
44791;BMP280;30510;37.536;-122.304;2022-07-05T10:39:35;101346.84;;;22.99
44791;BMP280;30510;37.536;-122.304;2022-07-05T10:42:00;101340.59;;;22.97
44791;BMP280;30510;37.536;-122.304;2022-07-05T10:44:33;101344.22;;;22.97
44791;BMP280;30510;37.536;-122.304;2022-07-05T10:47:08;101339.75;;;22.96
44791;BMP280;30510;37.536;-122.304;2022-07-05T10:49:33;101343.50;;;22.95
44791;BMP280;30510;37.536;-122.304;2022-07-05T10:51:59;101347.97;;;22.96
44791;BMP280;30510;37.536;-122.304;2022-07-05T10:54:24;101341.88;;;22.93
44791;BMP280;30510;37.536;-122.304;2022-07-05T11:02:17;101334.69;;;22.92
44791;BMP280;30510;37.536;-122.304;2022-07-05T11:04:43;101339.16;;;22.93
44791;BMP280;30510;37.536;-122.304;2022-07-05T11:07:08;101343.75;;;22.92
44791;BMP280;30510;37.536;-122.304;2022-07-05T11:09:34;101342.00;;;22.91
44791;BMP280;30510;37.536;-122.304;2022-07-05T11:12:03;101339.28;;;22.91
44791;BMP280;30510;37.536;-122.304;2022-07-05T11:14:29;101341.16;;;22.91
44791;BMP280;30510;37.536;-122.304;2022-07-05T11:17:14;101337.66;;;22.89
44791;BMP280;30510;37.536;-122.304;2022-07-05T11:19:59;101335.03;;;22.87
44791;BMP280;30510;37.536;-122.304;2022-07-05T11:22:24;101335.03;;;22.87
44791;BMP280;30510;37.536;-122.304;2022-07-05T11:24:50;101333.28;;;22.86
44791;BMP280;30510;37.536;-122.304;2022-07-05T11:27:16;101336.03;;;22.86
44791;BMP280;30510;37.536;-122.304;2022-07-05T11:32:10;101338.75;;;22.86
44791;BMP280;30510;37.536;-122.304;2022-07-05T11:34:36;101345.25;;;22.85
44791;BMP280;30510;37.536;-122.304;2022-07-05T11:39:40;101347.13;;;22.85
44791;BMP280;30510;37.536;-122.304;2022-07-05T11:42:05;101345.63;;;22.81
44791;BMP280;30510;37.536;-122.304;2022-07-05T11:44:34;101345.63;;;22.81
44791;BMP280;30510;37.536;-122.304;2022-07-05T11:47:00;101333.84;;;22.80
44791;BMP280;30510;37.536;-122.304;2022-07-05T11:49:25;101334.81;;;22.79
44791;BMP280;30510;37.536;-122.304;2022-07-05T11:51:57;101334.09;;;22.77
44791;BMP280;30510;37.536;-122.304;2022-07-05T11:54:24;101325.75;;;22.79
44791;BMP280;30510;37.536;-122.304;2022-07-05T11:56:49;101324.91;;;22.78
44791;BMP280;30510;37.536;-122.304;2022-07-05T11:59:18;101320.56;;;22.76
44791;BMP280;30510;37.536;-122.304;2022-07-05T12:01:44;101326.78;;;22.78
44791;BMP280;30510;37.536;-122.304;2022-07-05T12:04:10;101323.16;;;22.77
44791;BMP280;30510;37.536;-122.304;2022-07-05T12:06:41;101318.94;;;22.73
44791;BMP280;30510;37.536;-122.304;2022-07-05T12:09:07;101327.16;;;22.73
44791;BMP280;30510;37.536;-122.304;2022-07-05T12:11:32;101334.38;;;22.74
44791;BMP280;30510;37.536;-122.304;2022-07-05T12:13:58;101324.41;;;22.73
44791;BMP280;30510;37.536;-122.304;2022-07-05T12:16:23;101321.69;;;22.73
44791;BMP280;30510;37.536;-122.304;2022-07-05T12:18:49;101323.69;;;22.72
44791;BMP280;30510;37.536;-122.304;2022-07-05T12:21:15;101323.69;;;22.72
44791;BMP280;30510;37.536;-122.304;2022-07-05T12:23:43;101323.69;;;22.72
44791;BMP280;30510;37.536;-122.304;2022-07-05T12:26:09;101328.44;;;22.70
44791;BMP280;30510;37.536;-122.304;2022-07-05T12:28:34;101321.06;;;22.70
44791;BMP280;30510;37.536;-122.304;2022-07-05T12:31:00;101333.03;;;22.69
44791;BMP280;30510;37.536;-122.304;2022-07-05T12:33:25;101331.16;;;22.70
44791;BMP280;30510;37.536;-122.304;2022-07-05T12:35:50;101321.31;;;22.67
44791;BMP280;30510;37.536;-122.304;2022-07-05T12:38:17;101332.44;;;22.66
44791;BMP280;30510;37.536;-122.304;2022-07-05T12:40:43;101330.56;;;22.66
44791;BMP280;30510;37.536;-122.304;2022-07-05T12:43:10;101330.56;;;22.66
44791;BMP280;30510;37.536;-122.304;2022-07-05T12:45:36;101329.53;;;22.67
44791;BMP280;30510;37.536;-122.304;2022-07-05T12:48:02;101335.16;;;22.66
44791;BMP280;30510;37.536;-122.304;2022-07-05T12:50:29;101325.09;;;22.66
44791;BMP280;30510;37.536;-122.304;2022-07-05T12:52:59;101328.19;;;22.62
44791;BMP280;30510;37.536;-122.304;2022-07-05T12:55:32;101342.59;;;22.64
44791;BMP280;30510;37.536;-122.304;2022-07-05T12:57:58;101340.91;;;22.63
44791;BMP280;30510;37.536;-122.304;2022-07-05T13:00:23;101338.16;;;22.63
44791;BMP280;30510;37.536;-122.304;2022-07-05T13:02:48;101344.59;;;22.62
44791;BMP280;30510;37.536;-122.304;2022-07-05T13:05:21;101339.13;;;22.62
44791;BMP280;30510;37.536;-122.304;2022-07-05T13:07:46;101345.63;;;22.61
44791;BMP280;30510;37.536;-122.304;2022-07-05T13:10:12;101344.91;;;22.59
44791;BMP280;30510;37.536;-122.304;2022-07-05T13:12:38;101339.44;;;22.59
44791;BMP280;30510;37.536;-122.304;2022-07-05T13:15:03;101339.44;;;22.59
44791;BMP280;30510;37.536;-122.304;2022-07-05T13:17:29;101346.63;;;22.60
44791;BMP280;30510;37.536;-122.304;2022-07-05T13:19:54;101352.09;;;22.60
44791;BMP280;30510;37.536;-122.304;2022-07-05T13:22:19;101344.91;;;22.59
44791;BMP280;30510;37.536;-122.304;2022-07-05T13:24:45;101351.22;;;22.59
44791;BMP280;30510;37.536;-122.304;2022-07-05T13:27:11;101354.81;;;22.60